createdAt,value
2023-04-03T00:13:45.382Z,73.7
2023-04-03T00:28:54.263Z,73.8
2023-04-03T00:44:03.484Z,73.7
2023-04-03T00:59:12.773Z,73.7
2023-04-03T01:14:21.752Z,74
2023-04-03T01:29:30.931Z,74.1
2023-04-03T01:44:39.957Z,74.1
2023-04-03T01:59:49.118Z,74.1
2023-04-03T02:14:58.312Z,74.7
2023-04-03T02:30:07.532Z,74.6
2023-04-03T02:45:16.458Z,74.2
2023-04-03T03:00:25.626Z,74.2
2023-04-03T03:15:35.041Z,74.3
2023-04-03T03:30:44.752Z,74.3
2023-04-03T03:45:54.300Z,74.2
2023-04-03T04:01:03.833Z,74.2
2023-04-03T04:16:13.637Z,74.2
2023-04-03T04:31:23.604Z,74.1
2023-04-03T04:46:33.421Z,74.4
2023-04-03T05:01:43.461Z,74.4
2023-04-03T05:16:53.287Z,74.3
2023-04-03T05:32:02.828Z,74.2
2023-04-03T05:47:12.575Z,73.9
2023-04-03T06:02:22.793Z,73.6
2023-04-03T06:17:32.289Z,73.6
2023-04-03T06:32:45.223Z,73.1
2023-04-03T06:47:55.900Z,73.4
2023-04-03T07:03:06.206Z,72.9
2023-04-03T07:18:16.113Z,72.7
2023-04-03T07:33:27.741Z,72.5
2023-04-03T07:48:37.792Z,72.4
2023-04-03T08:03:49.287Z,72.3
2023-04-03T08:18:58.250Z,72.1
2023-04-03T08:34:08.544Z,71.8
2023-04-03T08:49:19.471Z,71.6
2023-04-03T09:04:30.754Z,71.4
2023-04-03T09:19:51.452Z,70.8
2023-04-03T09:35:32.657Z,70.6
2023-04-03T09:50:45.093Z,70.4
2023-04-03T10:05:56.573Z,70.2
2023-04-03T10:21:28.108Z,69.9
2023-04-03T10:36:38.841Z,69.8
2023-04-03T10:51:48.989Z,69.8
2023-04-03T11:06:59.142Z,69.2
2023-04-03T11:22:10.293Z,68.4
2023-04-03T11:37:20.937Z,68.1
2023-04-03T11:52:31.090Z,67.7
2023-04-03T12:07:41.732Z,67
2023-04-03T12:22:52.066Z,67.9
2023-04-03T12:38:03.029Z,66.2
2023-04-03T12:53:13.606Z,65.2
2023-04-03T13:08:24.869Z,64.5
2023-04-03T13:23:34.902Z,66.2
2023-04-03T13:38:45.866Z,65.6
2023-04-03T13:53:55.490Z,65
2023-04-03T14:09:05.664Z,65.4
2023-04-03T14:24:15.132Z,64.2
2023-04-03T14:39:24.882Z,64
2023-04-03T14:54:35.741Z,61.2
2023-04-03T15:09:46.762Z,62.4
2023-04-03T15:24:57.128Z,61.9
2023-04-03T15:40:08.071Z,58.3
2023-04-03T15:55:22.538Z,55
2023-04-03T16:10:29.603Z,56.3
2023-04-03T16:25:36.967Z,57.1
2023-04-03T16:40:47.921Z,52.9
2023-04-03T16:55:54.350Z,62.3
2023-04-03T17:11:02.497Z,66.3
2023-04-03T17:26:13.398Z,66.8
2023-04-03T17:41:24.807Z,66.6
2023-04-03T17:56:34.816Z,66.6
2023-04-03T18:11:45.603Z,66.7
2023-04-03T18:26:55.399Z,66.9
2023-04-03T18:42:07.051Z,66.8
2023-04-03T18:57:16.707Z,66.8
2023-04-03T19:12:26.120Z,66.8
2023-04-03T19:27:35.262Z,66.9
2023-04-03T19:42:45.560Z,66.8
2023-04-03T19:57:54.676Z,66.9
2023-04-03T20:13:04.274Z,66.9
2023-04-03T20:28:13.864Z,67
2023-04-03T20:43:24.068Z,67
2023-04-03T20:58:33.683Z,67.1
2023-04-03T21:13:44.439Z,67
2023-04-03T21:28:54.066Z,67.2
2023-04-03T21:44:36.073Z,65.9
2023-04-03T21:59:46.649Z,66.6
2023-04-03T22:14:56.265Z,66.9
2023-04-03T22:30:05.704Z,67
2023-04-03T22:45:14.656Z,67.1
2023-04-03T23:00:24.305Z,67.1
2023-04-03T23:15:33.745Z,67
2023-04-03T23:30:44.963Z,67
2023-04-03T23:45:55.132Z,67.3
